sensor_id;sensor_type;location;lat;lon;timestamp;pressure;altitude;pressure_sealevel;temperature;humidity
48517;BME280;34310;51.904;4.256;2023-04-19T17:51:53;102441.09;;;17.13;62.39
48517;BME280;34310;51.904;4.256;2023-04-19T17:54:20;102438.69;;;17.16;62.54
48517;BME280;34310;51.904;4.256;2023-04-19T17:56:47;102439.00;;;17.20;62.50
48517;BME280;34310;51.904;4.256;2023-04-19T17:59:15;102437.59;;;17.25;62.17
48517;BME280;34310;51.904;4.256;2023-04-19T18:01:43;102441.44;;;17.30;62.02
48517;BME280;34310;51.904;4.256;2023-04-19T18:04:10;102447.09;;;17.37;62.18
48517;BME280;34310;51.904;4.256;2023-04-19T18:06:43;102436.97;;;17.41;61.88
48517;BME280;34310;51.904;4.256;2023-04-19T18:09:11;102437.28;;;17.46;61.80
48517;BME280;34310;51.904;4.256;2023-04-19T18:11:41;102441.91;;;17.50;61.42
48517;BME280;34310;51.904;4.256;2023-04-19T18:14:09;102445.72;;;17.55;61.23
48517;BME280;34310;51.904;4.256;2023-04-19T18:16:37;102447.66;;;17.57;61.08
48517;BME280;34310;51.904;4.256;2023-04-19T18:19:05;102447.03;;;17.61;61.05
48517;BME280;34310;51.904;4.256;2023-04-19T18:21:32;102459.53;;;17.65;60.83
48517;BME280;34310;51.904;4.256;2023-04-19T18:23:59;102454.66;;;17.70;60.73
48517;BME280;34310;51.904;4.256;2023-04-19T18:26:36;102463.50;;;17.72;60.56
48517;BME280;34310;51.904;4.256;2023-04-19T18:29:04;102455.88;;;17.75;60.46
48517;BME280;34310;51.904;4.256;2023-04-19T18:31:32;102468.22;;;17.78;60.45
48517;BME280;34310;51.904;4.256;2023-04-19T18:34:00;102459.59;;;17.79;60.45
48517;BME280;34310;51.904;4.256;2023-04-19T18:36:27;102464.22;;;17.83;60.22
48517;BME280;34310;51.904;4.256;2023-04-19T18:38:55;102466.72;;;17.81;59.97
48517;BME280;34310;51.904;4.256;2023-04-19T18:41:22;102467.84;;;17.85;59.95
48517;BME280;34310;51.904;4.256;2023-04-19T18:43:50;102470.53;;;17.86;59.84
48517;BME280;34310;51.904;4.256;2023-04-19T18:46:37;102471.66;;;17.90;59.65
48517;BME280;34310;51.904;4.256;2023-04-19T18:49:04;102476.97;;;17.91;59.71
48517;BME280;34310;51.904;4.256;2023-04-19T18:51:32;102470.94;;;17.92;59.63
48517;BME280;34310;51.904;4.256;2023-04-19T18:53:59;102474.59;;;17.94;59.76
48517;BME280;34310;51.904;4.256;2023-04-19T18:56:27;102483.44;;;17.97;59.63
48517;BME280;34310;51.904;4.256;2023-04-19T18:59:14;102484.47;;;17.99;59.50
48517;BME280;34310;51.904;4.256;2023-04-19T19:01:43;102483.66;;;18.00;59.54
48517;BME280;34310;51.904;4.256;2023-04-19T19:04:20;102484.56;;;18.00;59.58
48517;BME280;34310;51.904;4.256;2023-04-19T19:07:07;102479.44;;;18.02;59.34
48517;BME280;34310;51.904;4.256;2023-04-19T19:09:55;102486.47;;;18.03;59.43
48517;BME280;34310;51.904;4.256;2023-04-19T19:12:23;102485.66;;;18.04;59.34
48517;BME280;34310;51.904;4.256;2023-04-19T19:14:51;102493.59;;;18.05;59.23
48517;BME280;34310;51.904;4.256;2023-04-19T19:17:18;102491.91;;;18.06;59.31
48517;BME280;34310;51.904;4.256;2023-04-19T19:19:45;102495.41;;;18.06;59.21
48517;BME280;34310;51.904;4.256;2023-04-19T19:22:13;102492.00;;;18.07;59.11
48517;BME280;34310;51.904;4.256;2023-04-19T19:24:54;102497.31;;;18.09;59.24
48517;BME280;34310;51.904;4.256;2023-04-19T19:27:21;102486.88;;;18.09;59.02
48517;BME280;34310;51.904;4.256;2023-04-19T19:29:48;102496.53;;;18.10;59.11
48517;BME280;34310;51.904;4.256;2023-04-19T19:32:16;102497.41;;;18.10;59.02
48517;BME280;34310;51.904;4.256;2023-04-19T19:34:45;102494.81;;;18.10;59.12
48517;BME280;34310;51.904;4.256;2023-04-19T19:37:25;102496.63;;;18.11;59.09
48517;BME280;34310;51.904;4.256;2023-04-19T19:39:52;102495.81;;;18.12;58.75
48517;BME280;34310;51.904;4.256;2023-04-19T19:42:22;102501.13;;;18.14;58.81
48517;BME280;34310;51.904;4.256;2023-04-19T19:44:54;102500.22;;;18.13;58.62
48517;BME280;34310;51.904;4.256;2023-04-19T19:47:22;102500.34;;;18.15;58.45
48517;BME280;34310;51.904;4.256;2023-04-19T19:49:50;102498.53;;;18.14;58.66
48517;BME280;34310;51.904;4.256;2023-04-19T19:52:37;102504.66;;;18.14;58.66
48517;BME280;34310;51.904;4.256;2023-04-19T19:55:05;102511.59;;;18.14;58.60
48517;BME280;34310;51.904;4.256;2023-04-19T19:57:34;102512.59;;;18.16;58.40
48517;BME280;34310;51.904;4.256;2023-04-19T20:00:05;102508.97;;;18.14;58.61
48517;BME280;34310;51.904;4.256;2023-04-19T20:02:57;102512.50;;;18.14;58.39
48517;BME280;34310;51.904;4.256;2023-04-19T20:05:25;102517.84;;;18.16;58.32
48517;BME280;34310;51.904;4.256;2023-04-19T20:08:04;102520.44;;;18.16;58.64
48517;BME280;34310;51.904;4.256;2023-04-19T20:10:35;102516.94;;;18.15;58.44
48517;BME280;34310;51.904;4.256;2023-04-19T20:13:02;102523.06;;;18.16;58.37
48517;BME280;34310;51.904;4.256;2023-04-19T20:15:36;102525.66;;;18.16;58.43
48517;BME280;34310;51.904;4.256;2023-04-19T20:18:04;102516.03;;;18.15;58.33
48517;BME280;34310;51.904;4.256;2023-04-19T20:20:31;102519.44;;;18.14;58.23
48517;BME280;34310;51.904;4.256;2023-04-19T20:22:59;102524.56;;;18.12;58.26
48517;BME280;34310;51.904;4.256;2023-04-19T20:25:26;102525.47;;;18.13;57.99
48517;BME280;34310;51.904;4.256;2023-04-19T20:27:54;102532.50;;;18.14;58.06
48517;BME280;34310;51.904;4.256;2023-04-19T20:30:21;102525.47;;;18.13;58.15
48517;BME280;34310;51.904;4.256;2023-04-19T20:32:48;102528.09;;;18.13;58.14
48517;BME280;34310;51.904;4.256;2023-04-19T20:35:16;102530.69;;;18.13;57.99
48517;BME280;34310;51.904;4.256;2023-04-19T20:37:46;102532.41;;;18.12;58.12
48517;BME280;34310;51.904;4.256;2023-04-19T20:40:14;102533.31;;;18.13;57.94
48517;BME280;34310;51.904;4.256;2023-04-19T20:42:42;102535.94;;;18.13;57.93
48517;BME280;34310;51.904;4.256;2023-04-19T20:45:11;102530.59;;;18.11;57.98
48517;BME280;34310;51.904;4.256;2023-04-19T20:47:40;102534.00;;;18.10;58.04
48517;BME280;34310;51.904;4.256;2023-04-19T20:50:09;102533.13;;;18.10;58.00
48517;BME280;34310;51.904;4.256;2023-04-19T20:52:36;102534.00;;;18.10;57.89
48517;BME280;34310;51.904;4.256;2023-04-19T20:55:04;102526.97;;;18.09;57.86
48517;BME280;34310;51.904;4.256;2023-04-19T20:57:32;102528.69;;;18.09;57.84
48517;BME280;34310;51.904;4.256;2023-04-19T20:59:59;102531.31;;;18.09;57.99
48517;BME280;34310;51.904;4.256;2023-04-19T21:02:27;102541.66;;;18.07;57.80
48517;BME280;34310;51.904;4.256;2023-04-19T21:04:54;102530.41;;;18.08;57.75
48517;BME280;34310;51.904;4.256;2023-04-19T21:07:22;102539.84;;;18.06;57.90
48517;BME280;34310;51.904;4.256;2023-04-19T21:09:49;102541.56;;;18.06;57.74
48517;BME280;34310;51.904;4.256;2023-04-19T21:12:17;102530.19;;;18.05;57.77
48517;BME280;34310;51.904;4.256;2023-04-19T21:14:44;102533.72;;;18.06;57.88
48517;BME280;34310;51.904;4.256;2023-04-19T21:17:15;102539.75;;;18.05;57.62
48517;BME280;34310;51.904;4.256;2023-04-19T21:19:43;102535.31;;;18.04;57.77
48517;BME280;34310;51.904;4.256;2023-04-19T21:22:10;102539.66;;;18.03;57.61
48517;BME280;34310;51.904;4.256;2023-04-19T21:24:37;102539.53;;;18.02;57.69
48517;BME280;34310;51.904;4.256;2023-04-19T21:27:05;102540.44;;;18.02;57.84
48517;BME280;34310;51.904;4.256;2023-04-19T21:29:32;102542.97;;;18.01;57.68
48517;BME280;34310;51.904;4.256;2023-04-19T21:31:59;102551.69;;;18.01;57.85
48517;BME280;34310;51.904;4.256;2023-04-19T21:34:27;102560.25;;;17.99;57.67
48517;BME280;34310;51.904;4.256;2023-04-19T21:36:54;102548.09;;;17.99;57.65
48517;BME280;34310;51.904;4.256;2023-04-19T21:39:22;102544.56;;;17.99;57.62
48517;BME280;34310;51.904;4.256;2023-04-19T21:41:49;102548.88;;;17.98;57.72
48517;BME280;34310;51.904;4.256;2023-04-19T21:44:17;102546.16;;;17.97;57.61
48517;BME280;34310;51.904;4.256;2023-04-19T21:46:44;102546.16;;;17.97;57.74
48517;BME280;34310;51.904;4.256;2023-04-19T21:49:12;102552.19;;;17.95;57.86
48517;BME280;34310;51.904;4.256;2023-04-19T21:51:39;102549.47;;;17.94;57.77
48517;BME280;34310;51.904;4.256;2023-04-19T21:54:07;102553.00;;;17.94;57.67
48517;BME280;34310;51.904;4.256;2023-04-19T21:56:35;102543.22;;;17.92;57.76
48517;BME280;34310;51.904;4.256;2023-04-19T21:59:03;102543.22;;;17.92;57.57
48517;BME280;34310;51.904;4.256;2023-04-19T22:01:30;102549.25;;;17.91;57.61
48517;BME280;34310;51.904;4.256;2023-04-19T22:03:57;102550.94;;;17.90;57.72
48517;BME280;34310;51.904;4.256;2023-04-19T22:06:25;102552.66;;;17.90;57.65
48517;BME280;34310;51.904;4.256;2023-04-19T22:08:53;102555.97;;;17.87;57.58
48517;BME280;34310;51.904;4.256;2023-04-19T22:11:21;102555.97;;;17.87;57.67
48517;BME280;34310;51.904;4.256;2023-04-19T22:13:48;102554.16;;;17.86;57.75
48517;BME280;34310;51.904;4.256;2023-04-19T22:16:16;102550.63;;;17.86;57.55
48517;BME280;34310;51.904;4.256;2023-04-19T22:18:43;102556.66;;;17.85;57.59
48517;BME280;34310;51.904;4.256;2023-04-19T22:21:11;102550.53;;;17.84;57.67
48517;BME280;34310;51.904;4.256;2023-04-19T22:23:38;102557.47;;;17.84;57.62
48517;BME280;34310;51.904;4.256;2023-04-19T22:26:05;102558.28;;;17.83;57.61
48517;BME280;34310;51.904;4.256;2023-04-19T22:28:33;102552.16;;;17.82;57.56
48517;BME280;34310;51.904;4.256;2023-04-19T22:31:02;102549.44;;;17.81;57.65
48517;BME280;34310;51.904;4.256;2023-04-19T22:33:29;102553.75;;;17.80;57.74
48517;BME280;34310;51.904;4.256;2023-04-19T22:35:57;102548.41;;;17.79;57.72
48517;BME280;34310;51.904;4.256;2023-04-19T22:38:24;102557.06;;;17.78;57.67
48517;BME280;34310;51.904;4.256;2023-04-19T22:40:52;102545.69;;;17.77;57.45
48517;BME280;34310;51.904;4.256;2023-04-19T22:43:20;102552.63;;;17.77;57.59
48517;BME280;34310;51.904;4.256;2023-04-19T22:45:47;102546.50;;;17.76;57.54
48517;BME280;34310;51.904;4.256;2023-04-19T22:48:15;102542.88;;;17.74;57.50
48517;BME280;34310;51.904;4.256;2023-04-19T22:50:43;102546.41;;;17.75;57.84
48517;BME280;34310;51.904;4.256;2023-04-19T22:53:12;102539.38;;;17.74;57.67
48517;BME280;34310;51.904;4.256;2023-04-19T22:55:40;102537.44;;;17.71;57.57
48517;BME280;34310;51.904;4.256;2023-04-19T22:58:08;102533.13;;;17.72;57.64
48517;BME280;34310;51.904;4.256;2023-04-19T23:00:36;102528.59;;;17.69;57.60
48517;BME280;34310;51.904;4.256;2023-04-19T23:03:05;102538.16;;;17.69;57.55
48517;BME280;34310;51.904;4.256;2023-04-19T23:05:33;102536.34;;;17.68;57.69
48517;BME280;34310;51.904;4.256;2023-04-19T23:08:00;102536.34;;;17.68;57.73
48517;BME280;34310;51.904;4.256;2023-04-19T23:10:30;102532.69;;;17.65;57.52
48517;BME280;34310;51.904;4.256;2023-04-19T23:12:58;102530.88;;;17.64;57.50
48517;BME280;34310;51.904;4.256;2023-04-19T23:15:25;102525.50;;;17.63;57.58
48517;BME280;34310;51.904;4.256;2023-04-19T23:17:54;102525.50;;;17.63;57.49
48517;BME280;34310;51.904;4.256;2023-04-19T23:20:22;102526.31;;;17.62;57.45
48517;BME280;34310;51.904;4.256;2023-04-19T23:22:50;102528.81;;;17.60;57.47
48517;BME280;34310;51.904;4.256;2023-04-19T23:25:17;102523.59;;;17.60;57.49
48517;BME280;34310;51.904;4.256;2023-04-19T23:27:45;102528.72;;;17.59;57.58
48517;BME280;34310;51.904;4.256;2023-04-19T23:30:12;102517.25;;;17.57;57.64
48517;BME280;34310;51.904;4.256;2023-04-19T23:32:40;102522.47;;;17.57;57.30
48517;BME280;34310;51.904;4.256;2023-04-19T23:35:07;102520.66;;;17.56;57.61
48517;BME280;34310;51.904;4.256;2023-04-19T23:37:35;102524.97;;;17.55;57.48
48517;BME280;34310;51.904;4.256;2023-04-19T23:40:04;102527.50;;;17.54;57.47
48517;BME280;34310;51.904;4.256;2023-04-19T23:42:37;102523.06;;;17.53;57.53
48517;BME280;34310;51.904;4.256;2023-04-19T23:45:05;102522.97;;;17.51;57.49
48517;BME280;34310;51.904;4.256;2023-04-19T23:47:32;102519.44;;;17.51;57.45
48517;BME280;34310;51.904;4.256;2023-04-19T23:50:00;102518.44;;;17.49;57.56
48517;BME280;34310;51.904;4.256;2023-04-19T23:52:27;102515.03;;;17.50;57.54
48517;BME280;34310;51.904;4.256;2023-04-19T23:54:55;102514.03;;;17.48;57.45
48517;BME280;34310;51.904;4.256;2023-04-19T23:57:22;102516.53;;;17.46;57.63
48517;BME280;34310;51.904;4.256;2023-04-19T23:59:49;102507.78;;;17.46;57.65
